sensor_id;sensor_type;location;lat;lon;timestamp;temperature;humidity
5806;DHT22;2929;50.810;8.342;2023-10-13T00:01:21;14.80;99.90
5806;DHT22;2929;50.810;8.342;2023-10-13T00:03:48;14.80;99.90
5806;DHT22;2929;50.810;8.342;2023-10-13T00:06:18;14.80;99.90
5806;DHT22;2929;50.810;8.342;2023-10-13T00:08:45;14.90;99.90
5806;DHT22;2929;50.810;8.342;2023-10-13T00:11:13;14.90;99.90
5806;DHT22;2929;50.810;8.342;2023-10-13T00:13:41;14.90;99.90
5806;DHT22;2929;50.810;8.342;2023-10-13T00:16:15;14.90;99.90
5806;DHT22;2929;50.810;8.342;2023-10-13T00:18:47;14.90;99.90
5806;DHT22;2929;50.810;8.342;2023-10-13T00:21:14;14.90;99.90
5806;DHT22;2929;50.810;8.342;2023-10-13T00:23:46;14.90;99.90
5806;DHT22;2929;50.810;8.342;2023-10-13T00:26:19;14.80;99.90
5806;DHT22;2929;50.810;8.342;2023-10-13T00:28:53;14.80;99.90
5806;DHT22;2929;50.810;8.342;2023-10-13T00:31:35;14.80;99.90
5806;DHT22;2929;50.810;8.342;2023-10-13T00:34:04;14.80;99.90
5806;DHT22;2929;50.810;8.342;2023-10-13T00:36:44;14.70;99.90
5806;DHT22;2929;50.810;8.342;2023-10-13T00:39:14;14.70;99.90
5806;DHT22;2929;50.810;8.342;2023-10-13T00:41:42;14.70;99.90
5806;DHT22;2929;50.810;8.342;2023-10-13T00:44:24;14.70;99.90
5806;DHT22;2929;50.810;8.342;2023-10-13T00:46:52;14.80;99.90
5806;DHT22;2929;50.810;8.342;2023-10-13T00:49:23;14.80;99.90
5806;DHT22;2929;50.810;8.342;2023-10-13T00:51:50;14.70;99.90
5806;DHT22;2929;50.810;8.342;2023-10-13T00:54:18;14.70;99.90
5806;DHT22;2929;50.810;8.342;2023-10-13T00:56:53;14.70;99.90
5806;DHT22;2929;50.810;8.342;2023-10-13T00:59:24;14.70;99.90
5806;DHT22;2929;50.810;8.342;2023-10-13T01:01:51;14.70;99.90
5806;DHT22;2929;50.810;8.342;2023-10-13T01:04:21;14.70;99.90
5806;DHT22;2929;50.810;8.342;2023-10-13T01:06:49;14.70;99.90
5806;DHT22;2929;50.810;8.342;2023-10-13T01:09:16;14.70;99.90
5806;DHT22;2929;50.810;8.342;2023-10-13T01:11:44;14.60;99.90
5806;DHT22;2929;50.810;8.342;2023-10-13T01:14:12;14.60;99.90
5806;DHT22;2929;50.810;8.342;2023-10-13T01:16:43;14.60;99.90
5806;DHT22;2929;50.810;8.342;2023-10-13T01:19:10;14.60;99.90
5806;DHT22;2929;50.810;8.342;2023-10-13T01:21:38;14.60;99.90
5806;DHT22;2929;50.810;8.342;2023-10-13T01:24:08;14.50;99.90
5806;DHT22;2929;50.810;8.342;2023-10-13T01:26:34;14.50;99.90
5806;DHT22;2929;50.810;8.342;2023-10-13T01:29:05;14.50;99.90
5806;DHT22;2929;50.810;8.342;2023-10-13T01:31:40;14.60;99.90
5806;DHT22;2929;50.810;8.342;2023-10-13T01:34:13;14.60;99.90
5806;DHT22;2929;50.810;8.342;2023-10-13T01:36:40;14.60;99.90
5806;DHT22;2929;50.810;8.342;2023-10-13T01:39:10;14.60;99.90
5806;DHT22;2929;50.810;8.342;2023-10-13T01:41:37;14.60;99.90
5806;DHT22;2929;50.810;8.342;2023-10-13T01:44:05;14.60;99.90
5806;DHT22;2929;50.810;8.342;2023-10-13T01:46:32;14.50;99.90
5806;DHT22;2929;50.810;8.342;2023-10-13T01:48:58;14.50;99.90
5806;DHT22;2929;50.810;8.342;2023-10-13T01:51:25;14.50;99.90
5806;DHT22;2929;50.810;8.342;2023-10-13T01:53:53;14.50;99.90
5806;DHT22;2929;50.810;8.342;2023-10-13T01:56:25;14.50;99.90
5806;DHT22;2929;50.810;8.342;2023-10-13T01:58:55;14.50;99.90
5806;DHT22;2929;50.810;8.342;2023-10-13T02:01:22;14.50;99.90
5806;DHT22;2929;50.810;8.342;2023-10-13T02:03:56;14.50;99.90
5806;DHT22;2929;50.810;8.342;2023-10-13T02:06:29;14.50;99.90
5806;DHT22;2929;50.810;8.342;2023-10-13T02:08:59;14.60;99.90
5806;DHT22;2929;50.810;8.342;2023-10-13T02:11:32;14.60;99.90
5806;DHT22;2929;50.810;8.342;2023-10-13T02:13:58;14.70;99.90
5806;DHT22;2929;50.810;8.342;2023-10-13T02:16:26;14.70;99.90
5806;DHT22;2929;50.810;8.342;2023-10-13T02:18:52;14.80;99.90
5806;DHT22;2929;50.810;8.342;2023-10-13T02:21:19;14.80;99.90
5806;DHT22;2929;50.810;8.342;2023-10-13T02:23:45;14.80;99.90
5806;DHT22;2929;50.810;8.342;2023-10-13T02:26:25;14.80;99.90
5806;DHT22;2929;50.810;8.342;2023-10-13T02:28:57;14.80;99.90
5806;DHT22;2929;50.810;8.342;2023-10-13T02:31:27;14.80;99.90
5806;DHT22;2929;50.810;8.342;2023-10-13T02:33:53;14.70;99.90
5806;DHT22;2929;50.810;8.342;2023-10-13T02:36:21;14.70;99.90
5806;DHT22;2929;50.810;8.342;2023-10-13T02:38:49;14.70;99.90
5806;DHT22;2929;50.810;8.342;2023-10-13T02:41:17;14.60;99.90
5806;DHT22;2929;50.810;8.342;2023-10-13T02:43:51;14.60;99.90
5806;DHT22;2929;50.810;8.342;2023-10-13T02:46:19;14.50;99.90
5806;DHT22;2929;50.810;8.342;2023-10-13T02:48:48;14.50;99.90
5806;DHT22;2929;50.810;8.342;2023-10-13T02:51:19;14.50;99.90
5806;DHT22;2929;50.810;8.342;2023-10-13T02:53:48;14.50;99.90
5806;DHT22;2929;50.810;8.342;2023-10-13T02:56:15;14.50;99.90
5806;DHT22;2929;50.810;8.342;2023-10-13T02:58:47;14.60;99.90
5806;DHT22;2929;50.810;8.342;2023-10-13T03:01:20;14.50;99.90
5806;DHT22;2929;50.810;8.342;2023-10-13T03:03:49;14.60;99.90
5806;DHT22;2929;50.810;8.342;2023-10-13T03:06:18;14.60;99.90
5806;DHT22;2929;50.810;8.342;2023-10-13T03:08:47;14.60;99.90
5806;DHT22;2929;50.810;8.342;2023-10-13T03:11:14;14.60;99.90
5806;DHT22;2929;50.810;8.342;2023-10-13T03:13:46;14.60;99.90
5806;DHT22;2929;50.810;8.342;2023-10-13T03:16:16;14.60;99.90
5806;DHT22;2929;50.810;8.342;2023-10-13T03:18:47;14.70;99.90
5806;DHT22;2929;50.810;8.342;2023-10-13T03:21:22;14.70;99.90
5806;DHT22;2929;50.810;8.342;2023-10-13T03:23:56;14.70;99.90
5806;DHT22;2929;50.810;8.342;2023-10-13T03:26:30;14.70;99.90
5806;DHT22;2929;50.810;8.342;2023-10-13T03:29:02;14.80;99.90
5806;DHT22;2929;50.810;8.342;2023-10-13T03:31:30;14.70;99.90
5806;DHT22;2929;50.810;8.342;2023-10-13T03:34:04;14.80;99.90
5806;DHT22;2929;50.810;8.342;2023-10-13T03:36:36;14.80;99.90
5806;DHT22;2929;50.810;8.342;2023-10-13T03:39:29;14.80;99.90
5806;DHT22;2929;50.810;8.342;2023-10-13T03:41:57;14.90;99.90
5806;DHT22;2929;50.810;8.342;2023-10-13T03:44:25;14.90;99.90
5806;DHT22;2929;50.810;8.342;2023-10-13T03:46:57;14.90;99.90
5806;DHT22;2929;50.810;8.342;2023-10-13T03:49:35;14.90;99.90
5806;DHT22;2929;50.810;8.342;2023-10-13T03:52:04;15.00;99.90
5806;DHT22;2929;50.810;8.342;2023-10-13T03:54:31;15.00;99.90
5806;DHT22;2929;50.810;8.342;2023-10-13T03:57:01;15.10;99.90
5806;DHT22;2929;50.810;8.342;2023-10-13T03:59:37;15.10;99.90
5806;DHT22;2929;50.810;8.342;2023-10-13T04:02:04;15.20;99.90
5806;DHT22;2929;50.810;8.342;2023-10-13T04:04:39;15.20;99.90
5806;DHT22;2929;50.810;8.342;2023-10-13T04:07:14;15.20;99.90
5806;DHT22;2929;50.810;8.342;2023-10-13T04:10:06;15.30;99.90
5806;DHT22;2929;50.810;8.342;2023-10-13T04:12:49;15.30;99.90
5806;DHT22;2929;50.810;8.342;2023-10-13T04:15:34;15.30;99.90
5806;DHT22;2929;50.810;8.342;2023-10-13T04:18:08;15.30;99.90
5806;DHT22;2929;50.810;8.342;2023-10-13T04:20:57;15.30;99.90
5806;DHT22;2929;50.810;8.342;2023-10-13T04:23:35;15.30;99.90
5806;DHT22;2929;50.810;8.342;2023-10-13T04:26:24;15.20;99.90
5806;DHT22;2929;50.810;8.342;2023-10-13T04:29:01;15.30;99.90
5806;DHT22;2929;50.810;8.342;2023-10-13T04:31:36;15.30;99.90
5806;DHT22;2929;50.810;8.342;2023-10-13T04:34:25;15.30;99.90
5806;DHT22;2929;50.810;8.342;2023-10-13T04:37:05;15.30;99.90
5806;DHT22;2929;50.810;8.342;2023-10-13T04:39:48;15.30;99.90
5806;DHT22;2929;50.810;8.342;2023-10-13T04:42:22;15.30;99.90
5806;DHT22;2929;50.810;8.342;2023-10-13T04:45:07;15.30;99.90
5806;DHT22;2929;50.810;8.342;2023-10-13T04:48:03;15.30;99.90
5806;DHT22;2929;50.810;8.342;2023-10-13T04:50:39;15.30;99.90
5806;DHT22;2929;50.810;8.342;2023-10-13T04:53:13;15.30;99.90
5806;DHT22;2929;50.810;8.342;2023-10-13T04:55:59;15.30;99.90
5806;DHT22;2929;50.810;8.342;2023-10-13T04:58:33;15.40;99.90
5806;DHT22;2929;50.810;8.342;2023-10-13T05:01:29;15.50;99.90
5806;DHT22;2929;50.810;8.342;2023-10-13T05:04:13;15.40;99.90
5806;DHT22;2929;50.810;8.342;2023-10-13T05:07:04;15.40;99.90
5806;DHT22;2929;50.810;8.342;2023-10-13T05:09:49;15.40;99.90
5806;DHT22;2929;50.810;8.342;2023-10-13T05:12:34;15.50;99.90
5806;DHT22;2929;50.810;8.342;2023-10-13T05:15:19;15.50;99.90
5806;DHT22;2929;50.810;8.342;2023-10-13T05:18:04;15.50;99.90
5806;DHT22;2929;50.810;8.342;2023-10-13T05:21:01;15.50;99.90
5806;DHT22;2929;50.810;8.342;2023-10-13T05:23:46;15.50;99.90
5806;DHT22;2929;50.810;8.342;2023-10-13T05:26:33;15.50;99.90
5806;DHT22;2929;50.810;8.342;2023-10-13T05:29:18;15.50;99.90
5806;DHT22;2929;50.810;8.342;2023-10-13T05:32:02;15.50;99.90
5806;DHT22;2929;50.810;8.342;2023-10-13T05:34:55;15.40;99.90
5806;DHT22;2929;50.810;8.342;2023-10-13T05:37:39;15.40;99.90
5806;DHT22;2929;50.810;8.342;2023-10-13T05:40:24;15.40;99.90
5806;DHT22;2929;50.810;8.342;2023-10-13T05:43:10;15.50;99.90
5806;DHT22;2929;50.810;8.342;2023-10-13T05:46:00;15.40;99.90
5806;DHT22;2929;50.810;8.342;2023-10-13T05:49:01;15.40;99.90
5806;DHT22;2929;50.810;8.342;2023-10-13T05:51:52;15.50;99.90
5806;DHT22;2929;50.810;8.342;2023-10-13T05:54:24;15.40;99.90
5806;DHT22;2929;50.810;8.342;2023-10-13T05:57:08;15.50;99.90
5806;DHT22;2929;50.810;8.342;2023-10-13T06:00:03;15.50;99.90
5806;DHT22;2929;50.810;8.342;2023-10-13T06:02:47;15.50;99.90
5806;DHT22;2929;50.810;8.342;2023-10-13T06:05:32;15.50;99.90
5806;DHT22;2929;50.810;8.342;2023-10-13T06:08:12;15.60;99.90
5806;DHT22;2929;50.810;8.342;2023-10-13T06:11:01;15.60;99.90
5806;DHT22;2929;50.810;8.342;2023-10-13T06:13:47;15.50;99.90
5806;DHT22;2929;50.810;8.342;2023-10-13T06:16:32;15.60;99.90
5806;DHT22;2929;50.810;8.342;2023-10-13T06:19:17;15.50;99.90
5806;DHT22;2929;50.810;8.342;2023-10-13T06:22:01;15.60;99.90
5806;DHT22;2929;50.810;8.342;2023-10-13T06:24:45;15.60;99.90
5806;DHT22;2929;50.810;8.342;2023-10-13T06:27:30;15.70;99.90
5806;DHT22;2929;50.810;8.342;2023-10-13T06:30:14;15.70;99.90
5806;DHT22;2929;50.810;8.342;2023-10-13T06:32:44;15.70;99.90
5806;DHT22;2929;50.810;8.342;2023-10-13T06:35:12;15.70;99.90
5806;DHT22;2929;50.810;8.342;2023-10-13T06:37:48;15.70;99.90
5806;DHT22;2929;50.810;8.342;2023-10-13T06:40:17;15.70;99.90
5806;DHT22;2929;50.810;8.342;2023-10-13T06:42:51;15.70;99.90
5806;DHT22;2929;50.810;8.342;2023-10-13T06:45:20;15.70;99.90
5806;DHT22;2929;50.810;8.342;2023-10-13T06:47:49;15.70;99.90
5806;DHT22;2929;50.810;8.342;2023-10-13T06:50:19;15.70;99.90
5806;DHT22;2929;50.810;8.342;2023-10-13T06:52:50;15.70;99.90
5806;DHT22;2929;50.810;8.342;2023-10-13T06:55:20;15.70;99.90
5806;DHT22;2929;50.810;8.342;2023-10-13T06:57:52;15.80;99.90
5806;DHT22;2929;50.810;8.342;2023-10-13T07:00:21;15.80;99.90
5806;DHT22;2929;50.810;8.342;2023-10-13T07:02:57;15.80;99.90
5806;DHT22;2929;50.810;8.342;2023-10-13T07:05:34;15.80;99.90
5806;DHT22;2929;50.810;8.342;2023-10-13T07:08:04;15.80;99.90
5806;DHT22;2929;50.810;8.342;2023-10-13T07:10:32;15.70;99.90
5806;DHT22;2929;50.810;8.342;2023-10-13T07:13:11;15.70;99.90
5806;DHT22;2929;50.810;8.342;2023-10-13T07:15:39;15.80;99.90
5806;DHT22;2929;50.810;8.342;2023-10-13T07:18:13;15.80;99.90
5806;DHT22;2929;50.810;8.342;2023-10-13T07:20:41;15.70;99.90
5806;DHT22;2929;50.810;8.342;2023-10-13T07:23:11;15.80;99.90
5806;DHT22;2929;50.810;8.342;2023-10-13T07:25:51;15.90;99.90
5806;DHT22;2929;50.810;8.342;2023-10-13T07:28:18;15.80;99.90
5806;DHT22;2929;50.810;8.342;2023-10-13T07:30:46;15.90;99.90
5806;DHT22;2929;50.810;8.342;2023-10-13T07:33:38;15.90;99.90
5806;DHT22;2929;50.810;8.342;2023-10-13T07:36:07;16.00;99.90
5806;DHT22;2929;50.810;8.342;2023-10-13T07:38:42;16.00;99.90
5806;DHT22;2929;50.810;8.342;2023-10-13T07:41:14;16.00;99.90
5806;DHT22;2929;50.810;8.342;2023-10-13T07:43:43;16.00;99.90
5806;DHT22;2929;50.810;8.342;2023-10-13T07:46:10;16.00;99.90
5806;DHT22;2929;50.810;8.342;2023-10-13T07:48:39;16.10;99.90
5806;DHT22;2929;50.810;8.342;2023-10-13T07:51:11;16.10;99.90
5806;DHT22;2929;50.810;8.342;2023-10-13T07:53:41;16.10;99.90
5806;DHT22;2929;50.810;8.342;2023-10-13T07:56:09;16.20;99.90
5806;DHT22;2929;50.810;8.342;2023-10-13T07:58:38;16.20;99.90
5806;DHT22;2929;50.810;8.342;2023-10-13T08:01:18;16.20;99.90
5806;DHT22;2929;50.810;8.342;2023-10-13T08:03:46;16.20;99.90
5806;DHT22;2929;50.810;8.342;2023-10-13T08:06:16;16.30;99.90
5806;DHT22;2929;50.810;8.342;2023-10-13T08:08:47;16.20;99.90
5806;DHT22;2929;50.810;8.342;2023-10-13T08:11:19;16.30;99.90
5806;DHT22;2929;50.810;8.342;2023-10-13T08:13:53;16.30;99.90
5806;DHT22;2929;50.810;8.342;2023-10-13T08:16:24;16.40;99.90
5806;DHT22;2929;50.810;8.342;2023-10-13T08:18:57;16.40;99.90
5806;DHT22;2929;50.810;8.342;2023-10-13T08:21:27;16.50;99.90
5806;DHT22;2929;50.810;8.342;2023-10-13T08:23:57;16.60;99.90
5806;DHT22;2929;50.810;8.342;2023-10-13T08:26:31;16.60;99.90
5806;DHT22;2929;50.810;8.342;2023-10-13T08:29:22;16.60;99.90
5806;DHT22;2929;50.810;8.342;2023-10-13T08:32:07;16.60;99.90
5806;DHT22;2929;50.810;8.342;2023-10-13T08:35:04;16.60;99.90
5806;DHT22;2929;50.810;8.342;2023-10-13T08:37:48;16.60;99.90
5806;DHT22;2929;50.810;8.342;2023-10-13T08:40:27;16.60;99.90
5806;DHT22;2929;50.810;8.342;2023-10-13T08:43:12;16.70;99.90
5806;DHT22;2929;50.810;8.342;2023-10-13T08:45:41;16.70;99.90
5806;DHT22;2929;50.810;8.342;2023-10-13T08:48:24;16.80;99.90
5806;DHT22;2929;50.810;8.342;2023-10-13T08:50:59;16.80;99.90
5806;DHT22;2929;50.810;8.342;2023-10-13T08:53:53;16.80;99.90
5806;DHT22;2929;50.810;8.342;2023-10-13T08:56:24;17.00;99.90
5806;DHT22;2929;50.810;8.342;2023-10-13T08:58:59;17.00;99.90
5806;DHT22;2929;50.810;8.342;2023-10-13T09:01:34;17.10;99.90
5806;DHT22;2929;50.810;8.342;2023-10-13T09:04:01;17.10;99.90
5806;DHT22;2929;50.810;8.342;2023-10-13T09:06:45;17.20;99.90
5806;DHT22;2929;50.810;8.342;2023-10-13T09:09:18;17.20;99.90
5806;DHT22;2929;50.810;8.342;2023-10-13T09:11:53;17.30;99.90
5806;DHT22;2929;50.810;8.342;2023-10-13T09:14:34;17.20;99.90
5806;DHT22;2929;50.810;8.342;2023-10-13T09:17:04;17.30;99.90
5806;DHT22;2929;50.810;8.342;2023-10-13T09:19:49;17.20;99.90
5806;DHT22;2929;50.810;8.342;2023-10-13T09:22:26;17.20;99.90
5806;DHT22;2929;50.810;8.342;2023-10-13T09:24:58;17.20;99.90
5806;DHT22;2929;50.810;8.342;2023-10-13T09:27:28;17.20;99.90
5806;DHT22;2929;50.810;8.342;2023-10-13T09:30:05;17.30;99.90
5806;DHT22;2929;50.810;8.342;2023-10-13T09:32:36;17.30;99.90
5806;DHT22;2929;50.810;8.342;2023-10-13T09:35:17;17.30;99.90
5806;DHT22;2929;50.810;8.342;2023-10-13T09:37:46;17.30;99.90
5806;DHT22;2929;50.810;8.342;2023-10-13T09:40:15;17.30;99.90
5806;DHT22;2929;50.810;8.342;2023-10-13T09:43:00;17.30;99.90
5806;DHT22;2929;50.810;8.342;2023-10-13T09:45:32;17.30;99.90
5806;DHT22;2929;50.810;8.342;2023-10-13T09:48:03;17.30;99.90
5806;DHT22;2929;50.810;8.342;2023-10-13T09:50:36;17.30;99.90
5806;DHT22;2929;50.810;8.342;2023-10-13T09:53:08;17.30;99.90
5806;DHT22;2929;50.810;8.342;2023-10-13T09:55:43;17.30;99.90
5806;DHT22;2929;50.810;8.342;2023-10-13T09:58:11;17.30;99.90
5806;DHT22;2929;50.810;8.342;2023-10-13T10:00:43;17.30;99.90
5806;DHT22;2929;50.810;8.342;2023-10-13T10:03:13;17.30;99.90
5806;DHT22;2929;50.810;8.342;2023-10-13T10:05:58;17.40;99.90
5806;DHT22;2929;50.810;8.342;2023-10-13T10:08:32;17.30;99.90
5806;DHT22;2929;50.810;8.342;2023-10-13T10:11:19;17.30;99.90
5806;DHT22;2929;50.810;8.342;2023-10-13T10:13:53;17.30;99.90
5806;DHT22;2929;50.810;8.342;2023-10-13T10:16:36;17.50;99.90
5806;DHT22;2929;50.810;8.342;2023-10-13T10:19:07;17.60;99.90
5806;DHT22;2929;50.810;8.342;2023-10-13T10:21:34;17.60;99.90
5806;DHT22;2929;50.810;8.342;2023-10-13T10:24:14;17.60;99.90
5806;DHT22;2929;50.810;8.342;2023-10-13T10:26:50;17.50;99.90
5806;DHT22;2929;50.810;8.342;2023-10-13T10:29:18;17.50;99.90
5806;DHT22;2929;50.810;8.342;2023-10-13T10:31:45;17.50;99.90
5806;DHT22;2929;50.810;8.342;2023-10-13T10:34:14;17.60;99.90
5806;DHT22;2929;50.810;8.342;2023-10-13T10:36:46;17.60;99.90
5806;DHT22;2929;50.810;8.342;2023-10-13T10:39:15;17.50;99.90
5806;DHT22;2929;50.810;8.342;2023-10-13T10:41:43;17.50;99.90
5806;DHT22;2929;50.810;8.342;2023-10-13T10:44:18;17.50;99.90
5806;DHT22;2929;50.810;8.342;2023-10-13T10:46:51;17.50;99.90
5806;DHT22;2929;50.810;8.342;2023-10-13T10:49:23;17.60;99.90
5806;DHT22;2929;50.810;8.342;2023-10-13T10:52:00;17.60;99.90
5806;DHT22;2929;50.810;8.342;2023-10-13T10:54:31;17.60;99.90
5806;DHT22;2929;50.810;8.342;2023-10-13T10:56:58;17.80;99.90
5806;DHT22;2929;50.810;8.342;2023-10-13T10:59:37;17.80;99.90
5806;DHT22;2929;50.810;8.342;2023-10-13T11:02:04;17.80;99.90
5806;DHT22;2929;50.810;8.342;2023-10-13T11:04:34;17.90;99.90
5806;DHT22;2929;50.810;8.342;2023-10-13T11:07:06;18.00;99.90
5806;DHT22;2929;50.810;8.342;2023-10-13T11:09:36;18.10;99.90
5806;DHT22;2929;50.810;8.342;2023-10-13T11:12:12;18.10;99.90
5806;DHT22;2929;50.810;8.342;2023-10-13T11:15:00;18.00;99.90
5806;DHT22;2929;50.810;8.342;2023-10-13T11:17:27;18.10;99.90
5806;DHT22;2929;50.810;8.342;2023-10-13T11:20:11;18.20;99.90
5806;DHT22;2929;50.810;8.342;2023-10-13T11:22:45;18.30;99.90
5806;DHT22;2929;50.810;8.342;2023-10-13T11:25:21;18.60;99.90
5806;DHT22;2929;50.810;8.342;2023-10-13T11:27:49;18.70;99.90
5806;DHT22;2929;50.810;8.342;2023-10-13T11:30:23;18.90;99.90
5806;DHT22;2929;50.810;8.342;2023-10-13T11:33:02;19.10;99.90
5806;DHT22;2929;50.810;8.342;2023-10-13T11:35:31;19.10;99.90
5806;DHT22;2929;50.810;8.342;2023-10-13T11:38:12;19.10;99.90
5806;DHT22;2929;50.810;8.342;2023-10-13T11:40:41;19.20;99.90
5806;DHT22;2929;50.810;8.342;2023-10-13T11:43:32;19.20;99.90
5806;DHT22;2929;50.810;8.342;2023-10-13T11:46:05;19.20;99.90
5806;DHT22;2929;50.810;8.342;2023-10-13T11:48:41;19.20;99.90
5806;DHT22;2929;50.810;8.342;2023-10-13T11:51:09;19.20;99.90
5806;DHT22;2929;50.810;8.342;2023-10-13T11:53:43;19.20;99.90
5806;DHT22;2929;50.810;8.342;2023-10-13T11:56:11;19.20;99.90
5806;DHT22;2929;50.810;8.342;2023-10-13T11:58:39;19.20;99.90
5806;DHT22;2929;50.810;8.342;2023-10-13T12:01:07;19.20;99.90
5806;DHT22;2929;50.810;8.342;2023-10-13T12:03:48;19.20;99.90
5806;DHT22;2929;50.810;8.342;2023-10-13T12:06:34;19.20;99.90
5806;DHT22;2929;50.810;8.342;2023-10-13T12:09:12;19.20;99.90
5806;DHT22;2929;50.810;8.342;2023-10-13T12:12:03;19.10;99.90
5806;DHT22;2929;50.810;8.342;2023-10-13T12:14:30;19.20;99.90
5806;DHT22;2929;50.810;8.342;2023-10-13T12:17:04;19.10;99.90
5806;DHT22;2929;50.810;8.342;2023-10-13T12:19:45;19.10;99.90
5806;DHT22;2929;50.810;8.342;2023-10-13T12:22:16;19.10;99.90
5806;DHT22;2929;50.810;8.342;2023-10-13T12:24:51;19.10;99.90
5806;DHT22;2929;50.810;8.342;2023-10-13T12:27:21;19.00;99.90
5806;DHT22;2929;50.810;8.342;2023-10-13T12:30:12;18.90;99.90
5806;DHT22;2929;50.810;8.342;2023-10-13T12:32:49;18.80;99.90
5806;DHT22;2929;50.810;8.342;2023-10-13T12:35:32;18.90;99.90
5806;DHT22;2929;50.810;8.342;2023-10-13T12:38:10;18.80;99.90
5806;DHT22;2929;50.810;8.342;2023-10-13T12:41:05;18.80;99.90
5806;DHT22;2929;50.810;8.342;2023-10-13T12:43:51;18.80;99.90
5806;DHT22;2929;50.810;8.342;2023-10-13T12:46:35;18.80;99.90
5806;DHT22;2929;50.810;8.342;2023-10-13T12:49:20;18.70;99.90
5806;DHT22;2929;50.810;8.342;2023-10-13T12:52:04;18.80;99.90
5806;DHT22;2929;50.810;8.342;2023-10-13T12:54:41;18.80;99.90
5806;DHT22;2929;50.810;8.342;2023-10-13T12:57:12;18.90;99.90
5806;DHT22;2929;50.810;8.342;2023-10-13T12:59:41;18.80;99.90
5806;DHT22;2929;50.810;8.342;2023-10-13T13:02:08;18.80;99.90
5806;DHT22;2929;50.810;8.342;2023-10-13T13:04:41;18.80;99.90
5806;DHT22;2929;50.810;8.342;2023-10-13T13:07:10;18.90;99.90
5806;DHT22;2929;50.810;8.342;2023-10-13T13:09:39;18.90;99.90
5806;DHT22;2929;50.810;8.342;2023-10-13T13:12:07;18.90;99.90
5806;DHT22;2929;50.810;8.342;2023-10-13T13:14:34;18.90;99.90
5806;DHT22;2929;50.810;8.342;2023-10-13T13:17:02;18.90;99.90
5806;DHT22;2929;50.810;8.342;2023-10-13T13:19:32;18.90;99.90
5806;DHT22;2929;50.810;8.342;2023-10-13T13:22:01;18.80;99.90
5806;DHT22;2929;50.810;8.342;2023-10-13T13:24:30;18.90;99.90
5806;DHT22;2929;50.810;8.342;2023-10-13T13:26:59;18.90;99.90
5806;DHT22;2929;50.810;8.342;2023-10-13T13:29:29;19.00;99.90
5806;DHT22;2929;50.810;8.342;2023-10-13T13:31:56;19.00;99.90
5806;DHT22;2929;50.810;8.342;2023-10-13T13:34:25;19.00;99.90
5806;DHT22;2929;50.810;8.342;2023-10-13T13:36:52;19.00;99.90
5806;DHT22;2929;50.810;8.342;2023-10-13T13:39:19;19.10;99.90
5806;DHT22;2929;50.810;8.342;2023-10-13T13:41:54;19.10;99.90
5806;DHT22;2929;50.810;8.342;2023-10-13T13:44:23;19.10;99.90
5806;DHT22;2929;50.810;8.342;2023-10-13T13:46:56;19.10;99.90
5806;DHT22;2929;50.810;8.342;2023-10-13T13:49:25;19.10;99.90
5806;DHT22;2929;50.810;8.342;2023-10-13T13:52:05;19.00;99.90
5806;DHT22;2929;50.810;8.342;2023-10-13T13:54:33;19.00;99.90
5806;DHT22;2929;50.810;8.342;2023-10-13T13:56:59;19.00;99.90
5806;DHT22;2929;50.810;8.342;2023-10-13T13:59:28;19.10;99.90
5806;DHT22;2929;50.810;8.342;2023-10-13T14:02:01;19.00;99.90
5806;DHT22;2929;50.810;8.342;2023-10-13T14:04:34;19.20;99.90
5806;DHT22;2929;50.810;8.342;2023-10-13T14:07:02;19.30;99.90
5806;DHT22;2929;50.810;8.342;2023-10-13T14:09:32;19.30;99.90
5806;DHT22;2929;50.810;8.342;2023-10-13T14:12:06;19.30;99.90
5806;DHT22;2929;50.810;8.342;2023-10-13T14:14:50;19.20;99.90
5806;DHT22;2929;50.810;8.342;2023-10-13T14:17:21;19.20;99.90
5806;DHT22;2929;50.810;8.342;2023-10-13T14:19:56;19.10;99.90
5806;DHT22;2929;50.810;8.342;2023-10-13T14:22:23;19.10;99.90
5806;DHT22;2929;50.810;8.342;2023-10-13T14:24:52;19.10;99.90
5806;DHT22;2929;50.810;8.342;2023-10-13T14:27:21;19.20;99.90
5806;DHT22;2929;50.810;8.342;2023-10-13T14:29:49;19.20;99.90
5806;DHT22;2929;50.810;8.342;2023-10-13T14:32:19;19.10;99.90
5806;DHT22;2929;50.810;8.342;2023-10-13T14:34:50;19.10;99.90
5806;DHT22;2929;50.810;8.342;2023-10-13T14:37:23;19.00;99.90
5806;DHT22;2929;50.810;8.342;2023-10-13T14:39:55;19.00;99.90
5806;DHT22;2929;50.810;8.342;2023-10-13T14:42:24;19.00;99.90
5806;DHT22;2929;50.810;8.342;2023-10-13T14:44:51;19.10;99.90
5806;DHT22;2929;50.810;8.342;2023-10-13T14:47:22;19.00;99.90
5806;DHT22;2929;50.810;8.342;2023-10-13T14:49:54;19.00;99.90
5806;DHT22;2929;50.810;8.342;2023-10-13T14:52:23;19.00;99.90
5806;DHT22;2929;50.810;8.342;2023-10-13T14:54:50;18.90;99.90
5806;DHT22;2929;50.810;8.342;2023-10-13T14:57:21;18.90;99.90
5806;DHT22;2929;50.810;8.342;2023-10-13T14:59:51;18.90;99.90
5806;DHT22;2929;50.810;8.342;2023-10-13T15:02:18;18.90;99.90
5806;DHT22;2929;50.810;8.342;2023-10-13T15:04:46;18.80;99.90
5806;DHT22;2929;50.810;8.342;2023-10-13T15:07:15;18.70;99.90
5806;DHT22;2929;50.810;8.342;2023-10-13T15:09:45;18.60;99.90
5806;DHT22;2929;50.810;8.342;2023-10-13T15:12:12;18.60;99.90
5806;DHT22;2929;50.810;8.342;2023-10-13T15:14:39;18.60;99.90
5806;DHT22;2929;50.810;8.342;2023-10-13T15:17:08;18.70;99.90
5806;DHT22;2929;50.810;8.342;2023-10-13T15:19:36;18.60;99.90
5806;DHT22;2929;50.810;8.342;2023-10-13T15:22:04;18.60;99.90
5806;DHT22;2929;50.810;8.342;2023-10-13T15:24:33;18.70;99.90
5806;DHT22;2929;50.810;8.342;2023-10-13T15:27:10;18.80;99.90
5806;DHT22;2929;50.810;8.342;2023-10-13T15:29:37;18.80;99.90
5806;DHT22;2929;50.810;8.342;2023-10-13T15:32:04;18.80;99.90
5806;DHT22;2929;50.810;8.342;2023-10-13T15:34:51;18.70;99.90
5806;DHT22;2929;50.810;8.342;2023-10-13T15:37:19;18.60;99.90
5806;DHT22;2929;50.810;8.342;2023-10-13T15:39:50;18.50;99.90
5806;DHT22;2929;50.810;8.342;2023-10-13T15:42:20;18.60;99.90
5806;DHT22;2929;50.810;8.342;2023-10-13T15:44:47;18.60;99.90
5806;DHT22;2929;50.810;8.342;2023-10-13T15:47:15;18.60;99.90
5806;DHT22;2929;50.810;8.342;2023-10-13T15:49:43;18.50;99.90
5806;DHT22;2929;50.810;8.342;2023-10-13T15:52:09;18.50;99.90
5806;DHT22;2929;50.810;8.342;2023-10-13T15:54:37;18.60;99.90
5806;DHT22;2929;50.810;8.342;2023-10-13T15:57:08;18.50;99.90
5806;DHT22;2929;50.810;8.342;2023-10-13T15:59:43;18.40;99.90
5806;DHT22;2929;50.810;8.342;2023-10-13T16:02:11;18.50;99.90
5806;DHT22;2929;50.810;8.342;2023-10-13T16:04:39;18.60;99.90
5806;DHT22;2929;50.810;8.342;2023-10-13T16:07:06;18.50;99.90
5806;DHT22;2929;50.810;8.342;2023-10-13T16:09:34;18.40;99.90
5806;DHT22;2929;50.810;8.342;2023-10-13T16:12:01;18.40;99.90
5806;DHT22;2929;50.810;8.342;2023-10-13T16:14:28;18.30;99.90
5806;DHT22;2929;50.810;8.342;2023-10-13T16:17:02;18.20;99.90
5806;DHT22;2929;50.810;8.342;2023-10-13T16:19:30;18.30;99.90
5806;DHT22;2929;50.810;8.342;2023-10-13T16:21:58;18.40;99.90
5806;DHT22;2929;50.810;8.342;2023-10-13T16:24:24;18.50;99.90
5806;DHT22;2929;50.810;8.342;2023-10-13T16:26:51;18.50;99.90
5806;DHT22;2929;50.810;8.342;2023-10-13T16:29:21;18.60;99.90
5806;DHT22;2929;50.810;8.342;2023-10-13T16:31:48;18.50;99.90
5806;DHT22;2929;50.810;8.342;2023-10-13T16:34:17;18.50;99.90
5806;DHT22;2929;50.810;8.342;2023-10-13T16:36:45;18.60;99.90
5806;DHT22;2929;50.810;8.342;2023-10-13T16:39:13;18.60;99.90
5806;DHT22;2929;50.810;8.342;2023-10-13T16:41:40;18.60;99.90
5806;DHT22;2929;50.810;8.342;2023-10-13T16:44:10;18.50;99.90